createdAt,value
2023-01-13T00:02:00.497Z,42.56
2023-01-13T00:04:28.054Z,42.83
2023-01-13T00:06:56.811Z,41.78
2023-01-13T00:09:24.093Z,42.85
2023-01-13T00:11:51.447Z,42.40
2023-01-13T00:14:18.630Z,43.38
2023-01-13T00:16:45.950Z,42.87
2023-01-13T00:19:13.151Z,42.76
2023-01-13T00:21:40.269Z,42.68
2023-01-13T00:24:11.210Z,43.36
2023-01-13T00:26:38.391Z,42.59
2023-01-13T00:29:05.490Z,42.59
2023-01-13T00:31:32.783Z,42.85
2023-01-13T00:34:01.654Z,42.64
2023-01-13T00:36:30.251Z,43.11
2023-01-13T00:38:58.174Z,42.22
2023-01-13T00:41:28.086Z,42.08
2023-01-13T00:43:55.216Z,41.75
2023-01-13T00:46:22.745Z,41.86
2023-01-13T00:48:49.912Z,41.77
2023-01-13T00:51:20.107Z,41.76
2023-01-13T00:53:50.040Z,42.13
2023-01-13T00:56:30.391Z,42.39
2023-01-13T00:59:07.057Z,42.22
2023-01-13T01:01:34.458Z,42.16
2023-01-13T01:04:01.710Z,42.71
2023-01-13T01:06:29.005Z,42.37
2023-01-13T01:08:56.727Z,41.83
2023-01-13T01:11:26.743Z,42.34
2023-01-13T01:13:56.730Z,42.07
2023-01-13T01:16:29.576Z,41.79
2023-01-13T01:18:57.775Z,41.62
2023-01-13T01:21:27.101Z,41.74
2023-01-13T01:23:55.271Z,41.56
2023-01-13T01:26:24.217Z,41.38
2023-01-13T01:28:52.175Z,42.47
2023-01-13T01:31:21.881Z,41.95
2023-01-13T01:33:51.451Z,42.22
2023-01-13T01:36:21.538Z,42.48
2023-01-13T01:38:49.447Z,44.15
2023-01-13T01:41:19.354Z,41.61
2023-01-13T01:43:52.871Z,42.17
2023-01-13T01:46:20.125Z,42.14
2023-01-13T01:48:47.396Z,42.11
2023-01-13T01:51:16.626Z,41.79
2023-01-13T01:53:44.511Z,42.39
2023-01-13T01:56:11.854Z,47.71
2023-01-13T01:58:46.355Z,44.78
2023-01-13T02:01:14.299Z,44.63
2023-01-13T02:03:47.217Z,43.35
2023-01-13T02:06:17.016Z,44.70
2023-01-13T02:08:44.614Z,44.80
2023-01-13T02:11:27.427Z,44.99
2023-01-13T02:13:54.881Z,42.65
2023-01-13T02:16:24.359Z,45.39
2023-01-13T02:19:05.988Z,43.47
2023-01-13T02:22:09.675Z,43.73
2023-01-13T02:25:11.530Z,43.76
2023-01-13T02:27:57.471Z,40.72
2023-01-13T02:30:38.534Z,40.94
2023-01-13T02:33:25.311Z,42.70
2023-01-13T02:36:01.667Z,41.47
2023-01-13T02:38:34.673Z,41.94
2023-01-13T02:41:10.991Z,42.40
2023-01-13T02:43:41.710Z,41.78
2023-01-13T02:46:17.798Z,43.31
2023-01-13T02:48:50.730Z,43.57
2023-01-13T02:51:24.351Z,41.02
2023-01-13T02:53:58.171Z,39.87
2023-01-13T02:56:27.890Z,42.88
2023-01-13T02:58:58.036Z,43.33
2023-01-13T03:01:26.822Z,42.57
2023-01-13T03:03:54.105Z,44.42
2023-01-13T03:06:44.385Z,42.26
2023-01-13T03:09:19.541Z,42.11
2023-01-13T03:12:00.297Z,42.53
2023-01-13T03:14:40.547Z,43.63
2023-01-13T03:17:21.923Z,43.52
2023-01-13T03:20:02.421Z,42.65
2023-01-13T03:22:38.104Z,43.18
2023-01-13T03:25:16.243Z,42.71
2023-01-13T03:27:51.826Z,42.54
2023-01-13T03:30:26.772Z,42.54
2023-01-13T03:33:03.430Z,41.81
2023-01-13T03:35:36.845Z,43.65
2023-01-13T03:38:10.951Z,42.75
2023-01-13T03:40:46.143Z,42.42
2023-01-13T03:43:21.051Z,43.47
2023-01-13T03:45:56.478Z,44.83
2023-01-13T03:48:31.545Z,44.34
2023-01-13T03:51:06.501Z,43.58
2023-01-13T03:53:40.288Z,44.63
2023-01-13T03:56:15.944Z,43.49
2023-01-13T03:58:49.384Z,44.41
2023-01-13T04:01:21.980Z,42.31
2023-01-13T04:03:59.825Z,42.58
2023-01-13T04:06:47.613Z,44.06
2023-01-13T04:09:24.381Z,44.73
2023-01-13T04:12:00.747Z,43.23
2023-01-13T04:14:29.665Z,44.81
2023-01-13T04:16:57.506Z,44.48
2023-01-13T04:19:26.107Z,42.91
2023-01-13T04:21:53.604Z,44.10
2023-01-13T04:24:20.728Z,45.34
2023-01-13T04:26:47.790Z,45.13
2023-01-13T04:29:15.799Z,43.68
2023-01-13T04:31:43.107Z,44.94
2023-01-13T04:34:11.342Z,45.36
2023-01-13T04:36:40.005Z,46.29
2023-01-13T04:39:07.143Z,46.41
2023-01-13T04:41:34.289Z,46.24
2023-01-13T04:44:01.324Z,45.60
2023-01-13T04:46:28.476Z,47.29
2023-01-13T04:48:55.663Z,46.34
2023-01-13T04:51:22.726Z,47.89
2023-01-13T04:53:51.308Z,46.65
2023-01-13T04:56:18.426Z,47.23
2023-01-13T04:58:45.486Z,47.52
2023-01-13T05:01:12.723Z,47.82
2023-01-13T05:03:39.966Z,46.79
2023-01-13T05:06:07.525Z,47.33
2023-01-13T05:08:34.625Z,47.24
2023-01-13T05:11:03.308Z,47.07
2023-01-13T05:13:30.489Z,46.94
2023-01-13T05:16:00.600Z,46.65
2023-01-13T05:18:30.964Z,47.33
2023-01-13T05:20:58.138Z,46.25
2023-01-13T05:23:25.205Z,48.27
2023-01-13T05:25:52.545Z,47.08
2023-01-13T05:28:21.226Z,47.34
2023-01-13T05:30:48.696Z,46.43
2023-01-13T05:33:18.127Z,47.64
2023-01-13T05:35:47.240Z,48.13
2023-01-13T05:38:15.366Z,47.20
2023-01-13T05:40:43.126Z,47.20
2023-01-13T05:43:12.287Z,47.25
2023-01-13T05:45:40.804Z,47.57
2023-01-13T05:48:08.019Z,47.43
2023-01-13T05:50:35.192Z,47.50
2023-01-13T05:53:02.405Z,47.37
2023-01-13T05:55:29.565Z,47.58
2023-01-13T05:57:56.665Z,48.07
2023-01-13T06:00:24.484Z,45.86
2023-01-13T06:02:53.535Z,47.58
2023-01-13T06:05:20.666Z,46.54
2023-01-13T06:07:47.773Z,47.94
2023-01-13T06:10:14.949Z,46.67
2023-01-13T06:12:42.165Z,46.71
2023-01-13T06:15:10.488Z,46.05
2023-01-13T06:17:37.662Z,48.11
2023-01-13T06:20:07.208Z,47.22
2023-01-13T06:22:39.566Z,48.35
2023-01-13T06:25:16.151Z,47.03
2023-01-13T06:27:43.846Z,47.07
2023-01-13T06:30:12.376Z,46.85
2023-01-13T06:32:46.003Z,47.83
2023-01-13T06:35:22.767Z,47.09
2023-01-13T06:37:55.391Z,46.93
2023-01-13T06:40:23.691Z,46.53
2023-01-13T06:42:55.047Z,46.98
2023-01-13T06:45:24.167Z,48.00
2023-01-13T06:47:51.267Z,46.52
2023-01-13T06:50:19.846Z,47.49
2023-01-13T06:52:47.129Z,47.86
2023-01-13T06:55:14.428Z,47.05
2023-01-13T06:57:49.966Z,47.50
2023-01-13T07:00:18.232Z,47.09
2023-01-13T07:02:46.008Z,48.04
2023-01-13T07:05:14.069Z,48.17
2023-01-13T07:07:42.993Z,47.39
2023-01-13T07:10:13.123Z,47.36
2023-01-13T07:12:41.407Z,48.64
2023-01-13T07:15:09.803Z,46.81
2023-01-13T07:17:36.947Z,48.63
2023-01-13T07:20:04.787Z,47.26
2023-01-13T07:22:32.007Z,48.77
2023-01-13T07:25:00.652Z,47.70
2023-01-13T07:27:27.866Z,48.08
2023-01-13T07:29:55.031Z,48.25
2023-01-13T07:32:22.253Z,48.83
2023-01-13T07:34:49.428Z,47.96
2023-01-13T07:37:16.608Z,47.98
2023-01-13T07:39:43.686Z,48.40
2023-01-13T07:42:12.250Z,48.10
2023-01-13T07:44:39.551Z,48.54
2023-01-13T07:47:06.787Z,48.38
2023-01-13T07:49:34.011Z,47.95
2023-01-13T07:52:01.145Z,48.12
2023-01-13T07:54:39.583Z,48.67
2023-01-13T07:57:07.745Z,47.28
2023-01-13T07:59:36.466Z,48.84
2023-01-13T08:02:03.792Z,47.99
2023-01-13T08:04:31.142Z,47.94
2023-01-13T08:06:58.435Z,47.78
2023-01-13T08:09:25.555Z,48.50
2023-01-13T08:11:54.686Z,48.32
2023-01-13T08:14:21.911Z,47.81
2023-01-13T08:16:50.427Z,49.23
2023-01-13T08:19:17.626Z,48.78
2023-01-13T08:21:44.891Z,49.06
2023-01-13T08:24:12.212Z,48.62
2023-01-13T08:26:39.428Z,48.06
2023-01-13T08:29:06.571Z,48.91
2023-01-13T08:31:33.708Z,46.77
2023-01-13T08:34:02.411Z,48.51
2023-01-13T08:36:29.687Z,48.60
2023-01-13T08:38:56.965Z,49.05
2023-01-13T08:41:24.152Z,48.29
2023-01-13T08:43:53.982Z,47.68
2023-01-13T08:46:21.223Z,48.17
2023-01-13T08:48:48.466Z,49.08
2023-01-13T08:51:17.039Z,47.92
2023-01-13T08:53:44.110Z,47.89
2023-01-13T08:56:11.388Z,48.33
2023-01-13T08:58:38.747Z,48.28
2023-01-13T09:01:06.698Z,48.37
2023-01-13T09:03:34.206Z,47.79
2023-01-13T09:06:01.392Z,48.92
2023-01-13T09:08:30.052Z,48.76
2023-01-13T09:10:57.908Z,48.44
2023-01-13T09:13:25.605Z,47.91
2023-01-13T09:15:52.925Z,47.72
2023-01-13T09:18:20.107Z,48.33
2023-01-13T09:20:47.318Z,47.69
2023-01-13T09:23:14.508Z,48.32
2023-01-13T09:25:43.111Z,47.46
2023-01-13T09:28:10.284Z,47.69
2023-01-13T09:30:37.948Z,48.50
2023-01-13T09:33:05.336Z,49.81
2023-01-13T09:35:32.449Z,48.70
2023-01-13T09:37:59.551Z,48.01
2023-01-13T09:40:27.050Z,48.20
2023-01-13T09:43:02.846Z,48.43
2023-01-13T09:45:38.096Z,48.60
2023-01-13T09:48:13.828Z,47.33
2023-01-13T09:50:52.989Z,47.21
2023-01-13T09:53:26.420Z,47.04
2023-01-13T09:55:54.986Z,47.24
2023-01-13T09:58:23.870Z,47.41
2023-01-13T10:01:06.697Z,47.90
2023-01-13T10:03:36.238Z,48.54
2023-01-13T10:06:13.529Z,48.76
2023-01-13T10:08:44.130Z,49.92
2023-01-13T10:11:20.109Z,49.55
2023-01-13T10:13:52.490Z,49.02
2023-01-13T10:16:32.631Z,49.34
2023-01-13T10:19:06.663Z,49.94
2023-01-13T10:22:09.265Z,49.72
2023-01-13T10:25:07.714Z,49.86
2023-01-13T10:27:36.737Z,51.05
2023-01-13T10:30:20.799Z,48.41
2023-01-13T10:32:55.611Z,47.25
2023-01-13T10:35:51.212Z,46.26
2023-01-13T10:38:20.711Z,46.76
2023-01-13T10:40:50.440Z,46.90
2023-01-13T10:43:17.701Z,47.27
2023-01-13T10:45:57.114Z,47.20
2023-01-13T10:48:38.253Z,47.60
2023-01-13T10:51:20.707Z,47.73
2023-01-13T10:54:00.648Z,48.62
2023-01-13T10:56:31.200Z,48.49
2023-01-13T10:59:17.544Z,47.50
2023-01-13T11:01:59.813Z,46.10
2023-01-13T11:04:31.075Z,45.44
2023-01-13T11:06:58.824Z,45.78
2023-01-13T11:09:29.590Z,46.29
2023-01-13T11:11:58.090Z,45.95
2023-01-13T11:14:36.478Z,45.11
2023-01-13T11:17:14.729Z,43.92
2023-01-13T11:19:50.917Z,43.66
2023-01-13T11:22:27.130Z,42.42
2023-01-13T11:25:00.057Z,43.41
2023-01-13T11:27:42.753Z,43.84
2023-01-13T11:30:26.221Z,42.97
2023-01-13T11:33:06.009Z,43.47
2023-01-13T11:35:41.133Z,43.14
2023-01-13T11:38:14.975Z,43.81
2023-01-13T11:40:47.289Z,43.13
2023-01-13T11:43:31.702Z,44.45
2023-01-13T11:46:01.597Z,46.11
2023-01-13T11:48:36.045Z,45.94
2023-01-13T11:51:16.864Z,44.71
2023-01-13T11:54:00.812Z,46.36
2023-01-13T11:56:58.911Z,46.21
2023-01-13T12:00:00.937Z,45.45
2023-01-13T12:02:51.737Z,45.48
2023-01-13T12:05:34.517Z,44.81
2023-01-13T12:08:18.787Z,45.84
2023-01-13T12:11:01.595Z,45.46
2023-01-13T12:13:40.432Z,47.15
2023-01-13T12:16:21.505Z,46.98
2023-01-13T12:19:27.165Z,48.03
2023-01-13T12:22:11.847Z,48.50
2023-01-13T12:24:49.701Z,45.44
2023-01-13T12:27:29.581Z,45.12
2023-01-13T12:30:02.017Z,45.53
2023-01-13T12:32:36.397Z,44.07
2023-01-13T12:35:23.697Z,44.23
2023-01-13T12:38:02.942Z,43.91
2023-01-13T12:40:51.379Z,43.62
2023-01-13T12:43:20.824Z,44.61
2023-01-13T12:45:48.213Z,47.71
2023-01-13T12:48:46.058Z,43.95
2023-01-13T12:51:23.041Z,43.79
2023-01-13T12:53:52.540Z,42.81
2023-01-13T12:56:46.847Z,43.76
2023-01-13T12:59:44.117Z,44.81
2023-01-13T13:02:30.567Z,43.71
2023-01-13T13:05:12.605Z,48.55
2023-01-13T13:07:45.985Z,44.84
2023-01-13T13:10:23.793Z,43.90
2023-01-13T13:13:00.111Z,43.94
2023-01-13T13:15:30.178Z,44.61
2023-01-13T13:18:20.656Z,44.39
2023-01-13T13:21:03.580Z,44.09
2023-01-13T13:23:41.141Z,45.08
2023-01-13T13:26:21.347Z,44.96
2023-01-13T13:29:07.897Z,44.88
2023-01-13T13:32:04.279Z,43.94
2023-01-13T13:34:44.905Z,44.13
2023-01-13T13:37:41.857Z,45.01
2023-01-13T13:40:11.680Z,43.09
2023-01-13T13:42:44.901Z,43.73
2023-01-13T13:45:22.929Z,43.41
2023-01-13T13:47:50.206Z,44.84
2023-01-13T13:50:20.587Z,44.17
2023-01-13T13:52:55.935Z,44.58
2023-01-13T13:55:27.494Z,45.41
2023-01-13T13:57:59.253Z,45.11
2023-01-13T14:00:30.918Z,44.87
2023-01-13T14:03:01.662Z,45.01
2023-01-13T14:05:31.004Z,45.01
2023-01-13T14:08:03.981Z,45.18
2023-01-13T14:10:34.368Z,45.01
2023-01-13T14:13:14.436Z,44.45
2023-01-13T14:15:42.118Z,44.42
2023-01-13T14:18:15.828Z,45.66
2023-01-13T14:20:43.493Z,45.38
2023-01-13T14:23:17.869Z,46.42
2023-01-13T14:25:49.261Z,46.76
2023-01-13T14:28:29.238Z,46.50
2023-01-13T14:30:57.760Z,46.70
2023-01-13T14:33:34.062Z,47.26
2023-01-13T14:36:14.163Z,46.31
2023-01-13T14:38:43.434Z,45.64
2023-01-13T14:41:23.927Z,46.40
2023-01-13T14:43:57.387Z,46.26
2023-01-13T14:46:25.598Z,46.26
2023-01-13T14:49:00.548Z,46.67
2023-01-13T14:51:30.683Z,47.01
2023-01-13T14:53:58.352Z,46.83
2023-01-13T14:56:44.583Z,46.77
2023-01-13T14:59:36.106Z,46.55
2023-01-13T15:02:47.173Z,46.87
2023-01-13T15:05:43.140Z,46.83
2023-01-13T15:08:27.970Z,46.88
2023-01-13T15:10:57.962Z,47.17
2023-01-13T15:13:31.843Z,47.31
2023-01-13T15:16:03.179Z,47.23
2023-01-13T15:18:30.720Z,47.66
2023-01-13T15:20:58.249Z,47.42
2023-01-13T15:23:25.726Z,47.59
2023-01-13T15:25:54.592Z,47.49
2023-01-13T15:28:24.153Z,46.40
2023-01-13T15:30:53.815Z,46.65
2023-01-13T15:33:22.879Z,46.22
2023-01-13T15:35:52.508Z,46.09
2023-01-13T15:38:21.488Z,46.50
2023-01-13T15:40:50.547Z,46.60
2023-01-13T15:43:20.041Z,46.66
2023-01-13T15:45:47.461Z,46.71
2023-01-13T15:48:14.774Z,46.93
2023-01-13T15:50:44.899Z,47.25
2023-01-13T15:53:14.495Z,47.18
2023-01-13T15:55:45.639Z,46.72
2023-01-13T15:58:14.071Z,46.18
2023-01-13T16:00:41.978Z,46.36
2023-01-13T16:03:12.777Z,45.98
2023-01-13T16:05:40.621Z,45.66
2023-01-13T16:08:15.801Z,45.42
2023-01-13T16:10:43.765Z,45.17
2023-01-13T16:13:11.350Z,44.56
2023-01-13T16:15:44.872Z,43.94
2023-01-13T16:18:18.452Z,43.53
2023-01-13T16:20:46.755Z,44.26
2023-01-13T16:23:15.618Z,42.80
2023-01-13T16:25:42.763Z,43.79
2023-01-13T16:28:21.429Z,43.01
2023-01-13T16:30:49.132Z,43.08
2023-01-13T16:33:16.795Z,42.63
2023-01-13T16:36:09.429Z,43.26
2023-01-13T16:38:32.949Z,43.83
2023-01-13T16:41:00.133Z,43.46
2023-01-13T16:43:27.303Z,43.69
2023-01-13T16:45:54.708Z,43.58
2023-01-13T16:48:22.002Z,44.12
2023-01-13T16:50:49.332Z,44.18
2023-01-13T16:53:16.513Z,44.00
2023-01-13T16:55:46.135Z,49.14
2023-01-13T16:58:18.115Z,45.21
2023-01-13T17:00:45.573Z,41.54
2023-01-13T17:03:13.502Z,39.82
2023-01-13T17:05:41.406Z,37.21
2023-01-13T17:08:13.465Z,38.12
2023-01-13T17:10:41.098Z,38.30
2023-01-13T17:13:15.964Z,39.46
2023-01-13T17:15:44.655Z,39.91
2023-01-13T17:18:12.323Z,40.34
2023-01-13T17:20:39.579Z,41.07
2023-01-13T17:23:07.343Z,41.57
2023-01-13T17:25:35.417Z,41.79
2023-01-13T17:28:02.834Z,41.77
2023-01-13T17:30:31.657Z,41.86
2023-01-13T17:32:59.119Z,41.97
2023-01-13T17:35:26.281Z,41.68
2023-01-13T17:37:54.505Z,41.58
2023-01-13T17:40:22.122Z,41.17
2023-01-13T17:42:49.264Z,41.11
2023-01-13T17:45:16.840Z,41.45
2023-01-13T17:47:47.340Z,41.89
2023-01-13T17:50:14.900Z,41.15
2023-01-13T17:52:42.230Z,41.10
2023-01-13T17:55:10.014Z,40.82
2023-01-13T17:57:37.175Z,40.73
2023-01-13T18:00:06.428Z,38.88
2023-01-13T18:02:33.722Z,39.67
2023-01-13T18:05:02.692Z,38.74
2023-01-13T18:07:29.811Z,38.51
2023-01-13T18:09:57.450Z,37.83
2023-01-13T18:12:25.052Z,36.27
2023-01-13T18:14:52.634Z,36.54
2023-01-13T18:17:19.945Z,37.31
2023-01-13T18:19:47.249Z,37.65
2023-01-13T18:22:16.201Z,37.46
2023-01-13T18:24:43.976Z,37.82
2023-01-13T18:27:13.668Z,38.82
2023-01-13T18:29:41.079Z,38.48
2023-01-13T18:32:08.803Z,39.11
2023-01-13T18:34:36.313Z,38.48
2023-01-13T18:37:04.267Z,39.42
2023-01-13T18:39:33.110Z,38.80
2023-01-13T18:42:00.311Z,38.20
2023-01-13T18:44:27.570Z,37.57
2023-01-13T18:46:54.966Z,37.86
2023-01-13T18:49:22.350Z,37.91
2023-01-13T18:51:50.708Z,38.28
2023-01-13T18:54:18.116Z,38.20
2023-01-13T18:56:47.408Z,38.82
2023-01-13T18:59:15.737Z,38.61
2023-01-13T19:01:43.574Z,39.19
2023-01-13T19:04:15.251Z,39.18
2023-01-13T19:06:44.409Z,39.54
2023-01-13T19:09:11.877Z,39.25
2023-01-13T19:11:39.129Z,39.08
2023-01-13T19:14:08.245Z,39.54
2023-01-13T19:16:35.708Z,39.36
2023-01-13T19:19:03.136Z,39.52
2023-01-13T19:21:30.432Z,38.96
2023-01-13T19:23:58.644Z,39.11
2023-01-13T19:26:25.909Z,39.91
2023-01-13T19:28:53.320Z,39.14
2023-01-13T19:31:22.121Z,39.14
2023-01-13T19:33:49.430Z,39.03
2023-01-13T19:36:17.069Z,39.11
2023-01-13T19:38:44.216Z,39.10
2023-01-13T19:41:12.808Z,39.28
2023-01-13T19:43:40.089Z,39.51
2023-01-13T19:46:07.502Z,39.99
2023-01-13T19:48:36.713Z,39.94
2023-01-13T19:51:04.974Z,41.09
2023-01-13T19:53:33.392Z,41.27
2023-01-13T19:56:02.154Z,41.92
2023-01-13T19:58:29.934Z,41.31
2023-01-13T20:00:57.338Z,42.06
2023-01-13T20:03:26.513Z,42.55
2023-01-13T20:05:55.819Z,42.13
2023-01-13T20:08:26.754Z,42.45
2023-01-13T20:10:54.113Z,42.01
2023-01-13T20:13:21.331Z,42.06
2023-01-13T20:15:49.107Z,42.88
2023-01-13T20:18:16.373Z,42.64
2023-01-13T20:20:43.536Z,43.07
2023-01-13T20:23:12.172Z,42.64
2023-01-13T20:25:42.450Z,42.83
2023-01-13T20:28:09.991Z,42.99
2023-01-13T20:30:40.333Z,42.61
2023-01-13T20:33:08.450Z,43.04
2023-01-13T20:35:36.032Z,42.52
2023-01-13T20:38:03.509Z,42.90
2023-01-13T20:40:39.073Z,42.94
2023-01-13T20:43:06.940Z,42.90
2023-01-13T20:45:34.406Z,42.80
2023-01-13T20:48:01.587Z,43.04
2023-01-13T20:50:28.933Z,43.10
2023-01-13T20:52:56.253Z,51.85
2023-01-13T20:55:23.760Z,44.08
2023-01-13T20:57:52.493Z,40.71
2023-01-13T21:00:20.674Z,36.42
2023-01-13T21:02:47.825Z,37.48
2023-01-13T21:05:15.671Z,38.70
2023-01-13T21:07:43.033Z,39.21
2023-01-13T21:10:11.071Z,40.58
2023-01-13T21:12:38.273Z,40.65
2023-01-13T21:15:10.446Z,41.19
2023-01-13T21:17:37.645Z,41.59
2023-01-13T21:20:07.746Z,42.56
2023-01-13T21:22:36.762Z,43.46
2023-01-13T21:25:06.318Z,43.24
2023-01-13T21:27:33.597Z,43.08
2023-01-13T21:30:00.864Z,43.32
2023-01-13T21:32:29.522Z,43.96
2023-01-13T21:34:56.919Z,43.73
2023-01-13T21:37:24.354Z,43.22
2023-01-13T21:39:53.680Z,43.04
2023-01-13T21:42:22.318Z,42.72
2023-01-13T21:44:49.616Z,42.97
2023-01-13T21:47:20.761Z,43.21
2023-01-13T21:49:49.795Z,43.43
2023-01-13T21:52:17.268Z,44.81
2023-01-13T21:54:44.655Z,43.85
2023-01-13T21:57:11.976Z,44.02
2023-01-13T21:59:39.674Z,44.25
2023-01-13T22:02:24.041Z,44.97
2023-01-13T22:04:54.914Z,44.44
2023-01-13T22:07:22.284Z,44.42
2023-01-13T22:09:49.614Z,44.59
2023-01-13T22:12:16.937Z,44.51
2023-01-13T22:14:44.350Z,44.96
2023-01-13T22:17:14.520Z,44.96
2023-01-13T22:19:41.957Z,44.57
2023-01-13T22:22:10.815Z,44.93
2023-01-13T22:24:38.094Z,45.15
2023-01-13T22:27:05.457Z,44.75
2023-01-13T22:29:33.019Z,45.31
2023-01-13T22:32:00.339Z,44.95
2023-01-13T22:34:27.725Z,45.33
2023-01-13T22:36:55.180Z,45.98
2023-01-13T22:39:24.274Z,45.58
2023-01-13T22:41:51.897Z,45.39
2023-01-13T22:44:19.915Z,45.37
2023-01-13T22:46:47.975Z,46.09
2023-01-13T22:49:16.939Z,46.08
2023-01-13T22:51:45.961Z,46.34
2023-01-13T22:54:13.960Z,46.06
2023-01-13T22:56:42.696Z,46.27
2023-01-13T22:59:12.954Z,46.14
2023-01-13T23:01:40.936Z,45.77
2023-01-13T23:04:11.465Z,45.96
2023-01-13T23:06:38.979Z,45.30
2023-01-13T23:09:07.139Z,46.14
2023-01-13T23:11:34.434Z,45.66
2023-01-13T23:14:05.916Z,45.82
2023-01-13T23:16:35.883Z,45.86
2023-01-13T23:19:04.340Z,45.62
2023-01-13T23:21:34.457Z,46.22
2023-01-13T23:24:02.157Z,46.11
2023-01-13T23:26:31.273Z,46.09
2023-01-13T23:28:59.755Z,46.20
2023-01-13T23:31:28.996Z,46.13
2023-01-13T23:33:56.309Z,46.42
2023-01-13T23:36:26.476Z,46.04
2023-01-13T23:38:53.743Z,46.07
2023-01-13T23:41:23.360Z,46.62
2023-01-13T23:43:51.923Z,46.17
2023-01-13T23:46:20.667Z,46.30
2023-01-13T23:48:50.635Z,46.85
2023-01-13T23:51:19.095Z,46.46
2023-01-13T23:53:48.268Z,46.85
2023-01-13T23:56:17.884Z,46.49
2023-01-13T23:58:45.584Z,46.76
